Time;durP1;ratioP1;P1;durP2;ratioP2;P2;SDS_P1;SDS_P2;PMS_P1;PMS_P2;Temp;Humidity;BMP_temperature;BMP_pressure;BME280_temperature;BME280_humidity;BME280_pressure;Samples;Min_cycle;Max_cycle;Signal;HPM_P1;HPM_P2
2021/01/20 00:00:34;;;;;;;8.32;1.67;;;11.40;99.00;;;;;;4951864;29;20499;-82
2021/01/20 00:03:00;;;;;;;3.97;1.40;;;11.40;99.10;;;;;;4951821;29;20030;-83
2021/01/20 00:05:26;;;;;;;5.60;1.60;;;11.30;99.10;;;;;;4951046;28;20031;-81
2021/01/20 00:07:52;;;;;;;6.72;1.75;;;11.30;99.10;;;;;;4952379;29;20094;-81
2021/01/20 00:10:17;;;;;;;2.15;1.42;;;11.30;99.30;;;;;;4952044;29;20019;-81
2021/01/20 00:12:46;;;;;;;4.63;2.28;;;11.30;99.20;;;;;;4951001;29;20383;-82
2021/01/20 00:15:16;;;;;;;3.45;1.67;;;11.30;99.30;;;;;;4950866;29;20028;-82
2021/01/20 00:17:42;;;;;;;2.78;1.50;;;11.30;99.50;;;;;;4947599;29;20028;-82
2021/01/20 00:20:09;;;;;;;6.03;2.00;;;11.30;99.50;;;;;;4952950;28;20110;-80
2021/01/20 00:22:35;;;;;;;1.58;1.10;;;11.30;99.70;;;;;;4954571;28;20031;-82
2021/01/20 00:25:00;;;;;;;3.50;1.50;;;11.30;99.50;;;;;;4954566;29;20027;-82
2021/01/20 00:27:26;;;;;;;6.80;1.40;;;11.30;99.50;;;;;;4953472;29;20054;-81
2021/01/20 00:29:52;;;;;;;3.65;1.42;;;11.30;99.60;;;;;;4954908;29;20098;-82
2021/01/20 00:32:17;;;;;;;1.38;1.10;;;11.20;99.50;;;;;;4954554;28;20527;-83
2021/01/20 00:34:43;;;;;;;;;;;11.30;99.50;;;;;;4954752;28;20042;-83
2021/01/20 00:37:09;;;;;;;1.25;0.90;;;11.30;99.40;;;;;;4954493;29;20374;-83
2021/01/20 00:39:34;;;;;;;3.85;1.13;;;11.30;99.30;;;;;;4954331;28;20035;-84
2021/01/20 00:42:00;;;;;;;4.05;0.90;;;11.30;99.20;;;;;;4954810;29;20389;-84
2021/01/20 00:44:25;;;;;;;;;;;11.40;99.10;;;;;;4955258;29;20114;-83
2021/01/20 00:46:51;;;;;;;2.03;1.10;;;11.40;99.10;;;;;;4953671;29;19933;-83
2021/01/20 00:49:17;;;;;;;2.47;0.98;;;11.30;99.20;;;;;;4940726;29;20413;-82
2021/01/20 00:51:42;;;;;;;2.08;1.08;;;11.30;99.30;;;;;;4954217;29;20023;-82
2021/01/20 00:54:08;;;;;;;2.25;1.15;;;11.30;99.40;;;;;;4934800;29;20654;-82
2021/01/20 00:56:34;;;;;;;4.03;0.98;;;11.30;99.40;;;;;;4944347;29;20040;-82
2021/01/20 00:58:59;;;;;;;6.65;1.30;;;11.40;99.30;;;;;;4952635;28;20067;-82
2021/01/20 01:01:25;;;;;;;;;;;11.40;99.10;;;;;;4946592;29;20106;-83
2021/01/20 01:03:51;;;;;;;1.42;1.00;;;11.50;98.90;;;;;;4948632;29;19913;-82
2021/01/20 01:06:17;;;;;;;1.67;0.77;;;11.50;98.90;;;;;;4948694;29;20028;-83
2021/01/20 01:08:42;;;;;;;2.10;0.75;;;11.50;98.70;;;;;;4942278;28;20032;-83
2021/01/20 01:11:08;;;;;;;;;;;11.50;98.70;;;;;;4957382;29;20015;-83
2021/01/20 01:13:33;;;;;;;4.40;1.23;;;11.50;98.50;;;;;;4940778;29;20583;-83
2021/01/20 01:15:59;;;;;;;;;;;11.50;98.60;;;;;;4938306;29;20047;-84
2021/01/20 01:18:25;;;;;;;1.63;0.82;;;11.60;98.70;;;;;;4945841;29;19965;-83
2021/01/20 01:20:51;;;;;;;4.15;1.00;;;11.60;98.60;;;;;;4942572;29;20035;-83
2021/01/20 01:23:16;;;;;;;;;;;11.60;98.50;;;;;;4959603;29;20138;-84
2021/01/20 01:25:42;;;;;;;2.33;0.75;;;11.70;98.40;;;;;;4943148;28;19907;-83
2021/01/20 01:28:13;;;;;;;5.63;1.15;;;11.70;98.40;;;;;;4938587;29;20015;-84
2021/01/20 01:30:39;;;;;;;6.45;0.80;;;11.70;98.20;;;;;;4954325;28;20058;-84
2021/01/20 01:33:05;;;;;;;2.10;0.70;;;11.70;98.50;;;;;;4947536;29;20119;-84
2021/01/20 01:35:31;;;;;;;1.95;0.70;;;11.70;98.30;;;;;;4947860;29;20110;-84
2021/01/20 01:37:57;;;;;;;;;;;11.70;98.20;;;;;;4948095;28;20023;-83
2021/01/20 01:40:22;;;;;;;1.08;0.80;;;11.70;98.00;;;;;;4948362;29;19974;-83
2021/01/20 01:42:48;;;;;;;5.25;0.90;;;11.70;98.20;;;;;;4955131;29;20537;-83
2021/01/20 01:45:14;;;;;;;4.50;0.88;;;11.70;98.40;;;;;;4946181;29;20031;-84
2021/01/20 01:47:40;;;;;;;4.15;0.80;;;11.60;98.40;;;;;;4953940;28;20034;-84
2021/01/20 01:50:06;;;;;;;5.30;0.90;;;11.70;98.60;;;;;;4947082;29;20035;-83
2021/01/20 01:52:36;;;;;;;1.73;0.93;;;11.60;98.60;;;;;;4948139;29;20019;-85
2021/01/20 01:55:03;;;;;;;4.95;0.73;;;11.60;98.60;;;;;;4949427;28;20465;-83
2021/01/20 01:57:28;;;;;;;3.25;0.90;;;11.60;98.60;;;;;;4949510;28;20107;-83
2021/01/20 01:59:54;;;;;;;7.32;1.13;;;11.60;98.90;;;;;;4946978;29;20139;-83
2021/01/20 02:02:20;;;;;;;5.03;1.50;;;11.60;98.90;;;;;;4947076;29;20037;-84
2021/01/20 02:04:45;;;;;;;1.83;0.80;;;11.60;98.70;;;;;;4967652;28;20031;-84
2021/01/20 02:07:12;;;;;;;3.00;0.90;;;11.60;99.10;;;;;;4946460;29;20039;-83
2021/01/20 02:09:38;;;;;;;8.68;1.00;;;11.60;99.40;;;;;;4946212;29;20038;-84
2021/01/20 02:12:40;;;;;;;1.88;0.70;;;11.50;99.70;;;;;;4944704;28;20016;-84
2021/01/20 02:15:15;;;;;;;5.07;0.70;;;11.50;99.80;;;;;;4949002;29;20039;-82
2021/01/20 02:17:44;;;;;;;2.65;0.77;;;11.40;99.90;;;;;;4948007;29;20539;-82
2021/01/20 02:20:47;;;;;;;3.40;0.90;;;11.40;99.90;;;;;;4950512;28;20031;-83
2021/01/20 02:23:17;;;;;;;2.60;0.93;;;11.40;99.90;;;;;;4949664;29;20090;-83
2021/01/20 02:26:10;;;;;;;4.45;0.75;;;11.40;99.90;;;;;;4945053;28;20527;-83
2021/01/20 02:29:02;;;;;;;1.23;0.73;;;11.40;99.80;;;;;;4951950;29;20038;-82
2021/01/20 02:31:29;;;;;;;3.97;0.90;;;11.40;99.60;;;;;;4951633;28;20480;-83
2021/01/20 02:33:59;;;;;;;6.20;1.67;;;11.40;99.70;;;;;;4953259;28;20062;-83
2021/01/20 02:36:25;;;;;;;2.38;1.10;;;11.40;99.60;;;;;;4951918;28;20023;-81
2021/01/20 02:38:52;;;;;;;3.42;1.25;;;11.40;99.70;;;;;;4948992;28;20027;-83
2021/01/20 02:41:29;;;;;;;5.15;1.15;;;11.40;99.60;;;;;;4953002;29;20500;-84
2021/01/20 02:44:03;;;;;;;3.92;1.10;;;11.40;99.60;;;;;;4953883;28;20548;-82
2021/01/20 02:46:30;;;;;;;0.98;0.75;;;11.40;99.60;;;;;;4958258;28;20023;-81
2021/01/20 02:48:58;;;;;;;1.38;0.73;;;11.40;99.60;;;;;;4961313;28;20039;-82
2021/01/20 02:51:50;;;;;;;3.13;0.63;;;11.50;99.80;;;;;;4957854;28;20074;-82
2021/01/20 02:54:19;;;;;;;0.90;0.70;;;11.50;99.50;;;;;;4972692;28;20037;-82
2021/01/20 02:56:47;;;;;;;3.53;0.90;;;11.50;99.30;;;;;;4962743;28;20019;-82
2021/01/20 02:59:14;;;;;;;2.13;0.70;;;11.50;99.10;;;;;;4961608;28;20031;-82
2021/01/20 03:01:48;;;;;;;2.15;0.73;;;11.50;98.90;;;;;;4963347;28;20054;-83
2021/01/20 03:04:16;;;;;;;3.15;0.95;;;11.60;98.70;;;;;;4943086;28;20023;-85
2021/01/20 03:06:45;;;;;;;3.97;1.33;;;11.60;98.70;;;;;;4949429;28;20086;-81
2021/01/20 03:09:12;;;;;;;0.70;0.70;;;11.50;98.90;;;;;;4936430;29;20023;-83
2021/01/20 03:11:49;;;;;;;4.20;0.93;;;11.50;98.80;;;;;;4940468;28;20031;-82
2021/01/20 03:14:18;;;;;;;2.65;0.90;;;11.50;99.00;;;;;;4967282;28;20055;-84
2021/01/20 03:16:44;;;;;;;2.05;0.95;;;11.50;99.20;;;;;;4952738;28;20567;-82
2021/01/20 03:19:09;;;;;;;;;;;11.50;99.30;;;;;;4955153;28;20031;-82
2021/01/20 03:21:35;;;;;;;7.25;1.92;;;11.40;99.50;;;;;;4954692;29;19914;-81
2021/01/20 03:24:01;;;;;;;5.45;0.93;;;11.40;99.50;;;;;;4962084;28;20063;-83
2021/01/20 03:26:27;;;;;;;2.15;1.00;;;11.40;99.40;;;;;;4958810;28;20023;-83
2021/01/20 03:28:52;;;;;;;6.35;1.02;;;11.40;99.30;;;;;;4954336;28;20393;-83
2021/01/20 03:31:18;;;;;;;3.58;1.10;;;11.40;99.30;;;;;;4953565;29;20020;-81
2021/01/20 03:33:44;;;;;;;;;;;11.40;99.50;;;;;;4943553;29;20115;-83
2021/01/20 03:36:09;;;;;;;2.35;0.70;;;11.40;99.40;;;;;;4949430;29;19948;-83
2021/01/20 03:38:35;;;;;;;2.03;0.60;;;11.40;99.40;;;;;;4946219;29;20450;-83
2021/01/20 03:41:01;;;;;;;;;;;11.40;99.50;;;;;;4947788;29;20082;-83
2021/01/20 03:43:26;;;;;;;0.85;0.57;;;11.30;99.60;;;;;;4953844;29;19913;-84
2021/01/20 03:45:52;;;;;;;2.00;0.68;;;11.30;99.50;;;;;;4948251;29;20039;-83
2021/01/20 03:48:18;;;;;;;0.40;0.40;;;11.40;99.50;;;;;;4945635;28;20440;-84
2021/01/20 03:50:43;;;;;;;2.40;0.80;;;11.40;99.60;;;;;;4949632;28;20020;-84
2021/01/20 03:53:09;;;;;;;1.08;0.60;;;11.40;99.60;;;;;;4944544;29;20039;-83
2021/01/20 03:55:35;;;;;;;1.23;0.70;;;11.40;99.70;;;;;;4953900;29;20381;-83
2021/01/20 03:58:00;;;;;;;5.57;0.70;;;11.40;99.60;;;;;;4948923;28;20136;-83
2021/01/20 04:00:26;;;;;;;0.95;0.68;;;11.40;99.70;;;;;;4951661;29;20031;-83
2021/01/20 04:02:52;;;;;;;1.88;0.80;;;11.40;99.60;;;;;;4952559;28;20112;-84
2021/01/20 04:05:17;;;;;;;1.20;0.65;;;11.40;99.30;;;;;;4948349;29;20114;-82
2021/01/20 04:07:43;;;;;;;4.05;0.90;;;11.40;99.30;;;;;;4955736;28;20496;-83
2021/01/20 04:10:09;;;;;;;;;;;11.50;99.10;;;;;;4957628;29;20433;-84
2021/01/20 04:12:38;;;;;;;2.22;0.75;;;11.50;98.90;;;;;;4956900;28;19913;-84
2021/01/20 04:15:05;;;;;;;1.65;0.75;;;11.50;98.80;;;;;;4953137;28;20016;-84
2021/01/20 04:17:31;;;;;;;6.13;1.10;;;11.60;98.70;;;;;;4938614;28;20034;-84
2021/01/20 04:19:57;;;;;;;3.58;1.02;;;11.60;98.30;;;;;;4953071;28;20031;-85
2021/01/20 04:22:23;;;;;;;;;;;11.60;98.10;;;;;;4948085;29;20752;-82
2021/01/20 04:24:49;;;;;;;5.70;1.08;;;11.70;98.20;;;;;;4938307;29;19906;-83
2021/01/20 04:27:14;;;;;;;2.50;0.90;;;11.60;98.50;;;;;;4952797;29;20027;-83
2021/01/20 04:29:40;;;;;;;3.45;0.70;;;11.60;98.20;;;;;;4956901;28;20041;-82
2021/01/20 04:32:06;;;;;;;;;;;11.60;98.00;;;;;;4957034;28;20031;-82
2021/01/20 04:34:32;;;;;;;2.47;0.88;;;11.70;98.40;;;;;;4939959;29;19907;-83
2021/01/20 04:36:57;;;;;;;;;;;11.60;97.90;;;;;;4940372;29;20027;-82
2021/01/20 04:39:23;;;;;;;3.22;0.80;;;11.70;98.20;;;;;;4951854;28;19953;-83
2021/01/20 04:41:49;;;;;;;;;;;11.70;98.10;;;;;;4938261;29;20035;-80
2021/01/20 04:44:14;;;;;;;3.53;0.82;;;11.70;98.40;;;;;;4952315;28;19926;-81
2021/01/20 04:46:43;;;;;;;4.80;0.65;;;11.60;98.20;;;;;;4950439;29;20035;-84
2021/01/20 04:49:14;;;;;;;4.38;1.00;;;11.70;97.60;;;;;;4955746;28;20085;-84
2021/01/20 04:51:41;;;;;;;2.10;0.80;;;11.70;97.80;;;;;;4943904;28;20031;-84
2021/01/20 04:54:12;;;;;;;2.60;0.90;;;11.80;97.70;;;;;;4942469;28;20106;-84
2021/01/20 04:56:39;;;;;;;1.73;0.90;;;11.80;97.60;;;;;;4955105;28;20035;-85
2021/01/20 04:59:06;;;;;;;1.98;0.95;;;11.80;97.30;;;;;;4945550;28;20032;-82
2021/01/20 05:01:32;;;;;;;3.47;1.33;;;11.80;97.90;;;;;;4949365;29;20024;-82
2021/01/20 05:04:03;;;;;;;6.97;1.10;;;11.70;97.80;;;;;;4950673;29;20035;-81
2021/01/20 05:06:30;;;;;;;3.33;0.80;;;11.70;97.80;;;;;;4947363;28;20020;-82
2021/01/20 05:08:56;;;;;;;5.10;1.45;;;11.70;97.70;;;;;;4943831;29;20016;-82
2021/01/20 05:11:40;;;;;;;9.27;1.85;;;11.70;97.80;;;;;;4955619;28;20058;-82
2021/01/20 05:14:09;;;;;;;8.30;1.48;;;11.70;97.70;;;;;;4955076;28;20536;-83
2021/01/20 05:16:35;;;;;;;5.40;1.58;;;11.70;97.70;;;;;;4952733;29;20082;-83
2021/01/20 05:19:00;;;;;;;;;;;11.70;97.60;;;;;;4953676;29;20027;-83
2021/01/20 05:21:28;;;;;;;4.20;1.02;;;11.70;97.80;;;;;;4954056;29;19906;-82
2021/01/20 05:23:54;;;;;;;13.02;1.95;;;11.70;98.00;;;;;;4952598;28;20086;-82
2021/01/20 05:26:19;;;;;;;;;;;11.70;97.90;;;;;;4956216;29;20020;-82
2021/01/20 05:28:45;;;;;;;7.93;1.73;;;11.70;97.90;;;;;;4952799;29;19907;-83
2021/01/20 05:31:25;;;;;;;8.95;1.50;;;11.60;97.90;;;;;;4955639;29;20034;-79
2021/01/20 05:33:51;;;;;;;12.40;1.88;;;11.60;98.00;;;;;;4951164;28;20052;-81
2021/01/20 05:36:17;;;;;;;;;;;11.60;98.20;;;;;;4958571;28;20057;-83
2021/01/20 05:38:49;;;;;;;7.80;2.60;;;11.60;98.00;;;;;;4959316;28;19926;-81
2021/01/20 05:41:29;;;;;;;11.25;2.75;;;11.60;98.20;;;;;;4943056;29;20023;-81
2021/01/20 05:44:12;;;;;;;7.70;2.03;;;11.50;98.30;;;;;;4954288;28;20226;-82
2021/01/20 05:46:43;;;;;;;7.65;2.25;;;11.50;98.20;;;;;;4948148;29;20258;-82
2021/01/20 05:49:27;;;;;;;8.65;2.00;;;11.50;98.10;;;;;;4954380;28;20700;-83
2021/01/20 05:51:53;;;;;;;7.82;1.80;;;11.50;98.00;;;;;;4955129;28;20039;-81
2021/01/20 05:54:33;;;;;;;6.65;1.73;;;11.50;98.00;;;;;;4952905;28;20023;-82
2021/01/20 05:57:17;;;;;;;7.20;1.40;;;11.50;97.80;;;;;;4955657;28;20110;-83
2021/01/20 05:59:44;;;;;;;3.83;1.98;;;11.50;97.80;;;;;;4954902;28;20039;-82
2021/01/20 06:02:12;;;;;;;6.25;1.48;;;11.50;98.00;;;;;;4954860;28;20481;-82
2021/01/20 06:04:38;;;;;;;5.50;1.50;;;11.40;97.90;;;;;;4955175;28;20112;-82
2021/01/20 06:07:08;;;;;;;4.90;2.22;;;11.40;97.70;;;;;;4955402;28;20077;-83
2021/01/20 06:09:36;;;;;;;3.92;1.30;;;11.40;97.90;;;;;;4940712;28;20023;-83
2021/01/20 06:12:09;;;;;;;5.97;1.70;;;11.40;97.80;;;;;;4954774;28;20024;-82
2021/01/20 06:14:36;;;;;;;6.03;2.42;;;11.30;97.90;;;;;;4952898;28;20027;-82
2021/01/20 06:17:19;;;;;;;9.00;3.00;;;11.30;98.40;;;;;;4954978;28;20074;-82
2021/01/20 06:19:50;;;;;;;6.35;2.47;;;11.20;98.30;;;;;;4951556;28;20500;-82
2021/01/20 06:22:18;;;;;;;7.70;2.95;;;11.20;98.30;;;;;;4935515;29;20030;-83
2021/01/20 06:24:53;;;;;;;10.70;3.13;;;11.20;98.00;;;;;;4941504;29;20030;-83
2021/01/20 06:27:27;;;;;;;10.32;3.75;;;11.20;98.10;;;;;;4952099;29;20472;-83
2021/01/20 06:30:10;;;;;;;10.85;3.50;;;11.10;98.20;;;;;;4945069;29;20067;-84
2021/01/20 06:32:42;;;;;;;11.73;4.15;;;11.10;98.20;;;;;;4940726;28;20475;-83
2021/01/20 06:35:09;;;;;;;9.63;3.45;;;11.10;98.10;;;;;;4934409;29;20019;-84
2021/01/20 06:37:43;;;;;;;12.90;3.63;;;11.20;98.20;;;;;;4951048;29;20031;-82
2021/01/20 06:40:20;;;;;;;9.32;3.67;;;11.20;97.80;;;;;;4953324;28;20050;-84
2021/01/20 06:42:50;;;;;;;8.93;3.50;;;11.10;98.00;;;;;;4953253;29;20339;-84
2021/01/20 06:45:22;;;;;;;9.65;3.28;;;11.20;97.90;;;;;;4941806;28;20032;-84
2021/01/20 06:47:59;;;;;;;7.57;2.80;;;11.10;97.90;;;;;;4959834;28;20046;-84
2021/01/20 06:50:50;;;;;;;10.07;2.90;;;11.10;98.00;;;;;;4967828;28;20030;-83
2021/01/20 06:53:16;;;;;;;9.25;2.70;;;11.10;97.90;;;;;;4958947;28;20077;-84
2021/01/20 06:55:41;;;;;;;6.50;2.85;;;11.10;98.50;;;;;;4979370;28;20027;-84
2021/01/20 06:58:26;;;;;;;5.65;2.33;;;11.10;98.20;;;;;;4952136;28;20516;-84
2021/01/20 07:01:01;;;;;;;5.75;2.40;;;11.10;98.10;;;;;;4956125;28;20446;-83
2021/01/20 07:03:40;;;;;;;6.70;2.10;;;11.00;98.20;;;;;;4943528;29;20027;-84
2021/01/20 07:06:28;;;;;;;12.02;5.55;;;11.10;98.40;;;;;;4937372;29;20027;-84
2021/01/20 07:08:54;;;;;;;7.32;2.08;;;11.10;98.20;;;;;;4941249;29;20532;-84
2021/01/20 07:11:20;;;;;;;8.32;2.28;;;11.00;98.20;;;;;;4939794;29;20030;-83
2021/01/20 07:13:46;;;;;;;;;;;11.00;98.40;;;;;;4948015;28;20027;-84
2021/01/20 07:16:12;;;;;;;5.68;1.98;;;11.00;98.50;;;;;;4941209;28;19965;-84
2021/01/20 07:18:44;;;;;;;7.18;2.20;;;10.90;98.40;;;;;;4943215;29;20042;-83
2021/01/20 07:21:09;;;;;;;11.15;3.85;;;11.00;98.60;;;;;;4955551;28;20032;-80
2021/01/20 07:23:35;;;;;;;15.10;6.63;;;10.90;98.50;;;;;;4956134;28;20493;-82
2021/01/20 07:26:03;;;;;;;8.52;2.75;;;10.90;98.70;;;;;;4947189;29;20440;-83
2021/01/20 07:28:29;;;;;;;7.95;1.98;;;10.90;98.50;;;;;;4962910;28;20385;-83
2021/01/20 07:31:11;;;;;;;5.57;2.03;;;10.90;98.60;;;;;;4954987;28;20023;-83
2021/01/20 07:33:38;;;;;;;3.88;1.70;;;10.90;98.50;;;;;;4955649;29;20031;-84
2021/01/20 07:36:12;;;;;;;8.00;2.22;;;10.90;98.20;;;;;;4948632;28;20024;-84
2021/01/20 07:38:38;;;;;;;5.57;1.98;;;10.90;98.10;;;;;;4953993;28;20031;-83
2021/01/20 07:41:26;;;;;;;3.88;1.92;;;10.90;98.00;;;;;;4968055;28;20110;-83
2021/01/20 07:44:05;;;;;;;7.80;1.85;;;10.90;98.20;;;;;;4958172;28;20059;-83
2021/01/20 07:46:31;;;;;;;3.45;1.95;;;10.90;98.10;;;;;;4958495;28;20088;-82
2021/01/20 07:49:08;;;;;;;6.32;1.85;;;11.00;97.70;;;;;;4963802;28;20019;-82
2021/01/20 07:51:34;;;;;;;4.20;2.30;;;10.90;97.80;;;;;;4961740;28;20118;-82
2021/01/20 07:54:04;;;;;;;3.83;2.05;;;10.90;98.10;;;;;;4958626;29;20050;-83
2021/01/20 07:56:31;;;;;;;2.47;1.75;;;10.90;98.10;;;;;;4957944;28;20067;-82
2021/01/20 07:59:13;;;;;;;5.75;1.90;;;10.90;98.20;;;;;;4956837;28;20165;-82
2021/01/20 08:01:39;;;;;;;5.10;1.92;;;10.90;98.20;;;;;;4953009;28;20054;-82
2021/01/20 08:04:16;;;;;;;;;;;10.90;98.40;;;;;;4957050;28;20102;-82
2021/01/20 08:06:42;;;;;;;6.03;2.03;;;10.80;98.40;;;;;;4948707;28;19925;-82
2021/01/20 08:09:08;;;;;;;10.75;2.65;;;10.90;98.40;;;;;;4938615;29;20023;-83
2021/01/20 08:11:34;;;;;;;6.55;3.03;;;10.90;98.40;;;;;;4951802;28;20035;-83
2021/01/20 08:14:00;;;;;;;6.55;4.15;;;10.90;98.60;;;;;;4939102;29;20028;-82
2021/01/20 08:16:35;;;;;;;6.30;2.72;;;10.80;98.80;;;;;;4939003;29;20035;-81
2021/01/20 08:19:07;;;;;;;7.45;3.55;;;10.80;98.80;;;;;;4948588;28;20026;-81
2021/01/20 08:21:33;;;;;;;5.65;2.80;;;10.80;98.80;;;;;;4956577;28;20031;-81
2021/01/20 08:24:05;;;;;;;7.90;3.78;;;10.80;98.70;;;;;;4951754;29;20019;-87
2021/01/20 08:26:32;;;;;;;6.38;3.17;;;10.90;98.60;;;;;;4939795;29;20024;-87
2021/01/20 08:29:12;;;;;;;13.05;3.83;;;10.90;98.40;;;;;;4951290;28;20138;-86
2021/01/20 08:31:39;;;;;;;8.10;3.30;;;10.90;98.30;;;;;;4952180;29;20031;-87
2021/01/20 08:34:18;;;;;;;11.20;3.55;;;11.00;98.00;;;;;;4956237;28;20449;-86
2021/01/20 08:36:56;;;;;;;7.68;4.15;;;11.00;98.10;;;;;;4952322;29;20024;-87
2021/01/20 08:39:23;;;;;;;11.55;4.97;;;11.00;98.40;;;;;;4958106;28;20035;-84
2021/01/20 08:42:10;;;;;;;13.23;4.43;;;11.00;98.30;;;;;;4958650;28;20028;-84
2021/01/20 08:44:36;;;;;;;9.25;4.05;;;11.00;98.40;;;;;;4955684;29;20031;-83
2021/01/20 08:47:02;;;;;;;11.15;4.72;;;11.00;98.50;;;;;;4958340;28;20240;-77
2021/01/20 08:49:28;;;;;;;11.13;4.05;;;11.00;98.60;;;;;;4956081;28;20027;-78
2021/01/20 08:51:57;;;;;;;;;;;10.90;98.70;;;;;;4955489;29;20110;-78
2021/01/20 08:54:24;;;;;;;16.30;4.97;;;10.90;98.60;;;;;;4971498;28;19957;-83
2021/01/20 08:56:50;;;;;;;14.00;5.30;;;10.90;98.80;;;;;;4955954;29;20020;-85
2021/01/20 08:59:15;;;;;;;7.97;4.03;;;10.90;98.80;;;;;;4955434;29;20077;-86
2021/01/20 09:01:41;;;;;;;;;;;10.90;98.80;;;;;;4957631;29;20495;-86
2021/01/20 09:04:07;;;;;;;6.53;4.40;;;10.90;98.70;;;;;;4956779;28;19907;-85
2021/01/20 09:06:32;;;;;;;;;;;10.90;98.70;;;;;;4958240;28;20031;-84
2021/01/20 09:08:58;;;;;;;10.88;4.40;;;10.90;98.80;;;;;;4947609;28;19907;-82
2021/01/20 09:11:25;;;;;;;9.23;4.32;;;10.90;98.80;;;;;;4954844;28;20030;-83
2021/01/20 09:13:54;;;;;;;13.55;5.68;;;10.90;98.60;;;;;;4946629;28;20067;-82
2021/01/20 09:16:26;;;;;;;12.88;5.68;;;10.90;98.30;;;;;;4954202;29;20461;-82
2021/01/20 09:18:52;;;;;;;16.08;6.07;;;10.80;98.30;;;;;;4949619;28;20034;-83
2021/01/20 09:21:18;;;;;;;11.38;5.22;;;10.90;97.90;;;;;;4954622;28;20493;-84
2021/01/20 09:23:44;;;;;;;10.77;6.38;;;10.90;97.80;;;;;;4947132;29;20357;-82
2021/01/20 09:26:09;;;;;;;13.13;6.70;;;10.90;98.00;;;;;;4946534;29;20028;-84
2021/01/20 09:28:36;;;;;;;11.10;7.38;;;10.90;98.00;;;;;;4947060;28;20509;-83
2021/01/20 09:31:03;;;;;;;18.95;8.10;;;10.90;98.10;;;;;;4946763;29;20093;-83
2021/01/20 09:33:28;;;;;;;19.58;8.27;;;10.80;98.00;;;;;;4945330;28;20046;-83
2021/01/20 09:35:54;;;;;;;22.40;8.80;;;10.80;97.80;;;;;;4948194;29;20469;-83
2021/01/20 09:38:21;;;;;;;22.60;7.40;;;10.90;97.90;;;;;;4942656;28;20051;-84
2021/01/20 09:40:47;;;;;;;25.70;8.00;;;10.80;97.50;;;;;;4955662;28;20054;-83
2021/01/20 09:43:13;;;;;;;22.15;8.23;;;10.90;97.80;;;;;;4947887;29;20027;-82
2021/01/20 09:45:39;;;;;;;18.33;7.22;;;10.80;97.60;;;;;;4953234;29;20469;-83
2021/01/20 09:48:06;;;;;;;12.30;5.80;;;10.80;98.00;;;;;;4947575;29;20031;-84
2021/01/20 09:50:36;;;;;;;16.48;5.95;;;10.80;97.70;;;;;;4951395;28;20354;-83
2021/01/20 09:53:03;;;;;;;10.25;5.65;;;10.80;97.80;;;;;;4945582;29;20027;-82
2021/01/20 09:55:29;;;;;;;17.05;5.25;;;10.80;97.80;;;;;;4942170;28;20024;-82
2021/01/20 09:57:55;;;;;;;11.23;4.05;;;10.80;98.10;;;;;;4953004;29;20041;-83
2021/01/20 10:00:21;;;;;;;15.50;4.90;;;10.80;97.50;;;;;;4947543;29;20039;-83
2021/01/20 10:02:47;;;;;;;10.32;4.13;;;10.80;97.50;;;;;;4955871;29;20465;-83
2021/01/20 10:05:13;;;;;;;12.85;4.47;;;10.80;97.70;;;;;;4961155;29;20066;-83
2021/01/20 10:07:40;;;;;;;11.40;3.30;;;10.80;97.80;;;;;;4954453;28;20019;-84
2021/01/20 10:10:09;;;;;;;8.60;3.53;;;10.80;97.20;;;;;;4948068;28;20115;-83
2021/01/20 10:12:35;;;;;;;6.60;3.50;;;10.80;97.80;;;;;;4948885;28;20023;-83
2021/01/20 10:15:00;;;;;;;9.45;3.47;;;10.70;97.90;;;;;;4947095;29;20034;-82
2021/01/20 10:17:26;;;;;;;9.45;3.65;;;10.70;97.40;;;;;;4946552;29;20465;-82
2021/01/20 10:19:52;;;;;;;11.27;4.05;;;10.80;97.70;;;;;;4949717;28;20036;-82
2021/01/20 10:22:17;;;;;;;10.05;3.17;;;10.80;97.30;;;;;;4940369;29;20110;-83
2021/01/20 10:24:43;;;;;;;8.13;3.30;;;10.80;97.10;;;;;;4950238;28;20019;-82
2021/01/20 10:27:09;;;;;;;6.10;2.35;;;10.80;97.00;;;;;;4955081;28;20034;-82
2021/01/20 10:29:35;;;;;;;;;;;10.80;97.00;;;;;;4953725;28;20421;-81
2021/01/20 10:32:01;;;;;;;6.13;3.05;;;10.80;97.00;;;;;;4953191;29;19945;-81
2021/01/20 10:34:29;;;;;;;9.02;2.60;;;10.80;97.00;;;;;;4947077;29;20503;-82
2021/01/20 10:36:55;;;;;;;7.05;2.55;;;10.80;96.60;;;;;;4960830;28;20027;-82
2021/01/20 10:39:22;;;;;;;5.25;2.40;;;10.80;97.00;;;;;;4946320;28;20056;-82
2021/01/20 10:41:48;;;;;;;6.70;2.20;;;10.80;96.70;;;;;;4950549;28;20034;-82
2021/01/20 10:44:14;;;;;;;5.38;1.70;;;10.80;97.00;;;;;;4937087;28;20028;-83
2021/01/20 10:46:40;;;;;;;1.67;1.35;;;10.80;96.70;;;;;;4948609;29;20042;-84
2021/01/20 10:49:05;;;;;;;;;;;10.90;96.60;;;;;;4951226;28;20489;-81
2021/01/20 10:51:34;;;;;;;2.75;1.70;;;10.80;96.90;;;;;;4952909;28;19906;-82
2021/01/20 10:54:04;;;;;;;2.47;1.30;;;10.80;97.10;;;;;;4950531;29;20027;-81
2021/01/20 10:56:30;;;;;;;2.33;1.30;;;10.80;97.40;;;;;;4954375;28;20071;-82
2021/01/20 10:58:56;;;;;;;5.00;1.50;;;10.80;97.10;;;;;;4948289;28;20039;-83
2021/01/20 11:01:31;;;;;;;;;;;10.80;97.20;;;;;;4953661;28;20023;-82
2021/01/20 11:03:57;;;;;;;4.57;2.22;;;10.70;97.40;;;;;;4946071;29;19965;-84
2021/01/20 11:06:22;;;;;;;7.40;2.70;;;10.70;97.40;;;;;;4947220;29;20055;-83
2021/01/20 11:08:48;;;;;;;2.55;1.45;;;10.70;97.90;;;;;;4944283;28;20032;-83
2021/01/20 11:11:14;;;;;;;;;;;10.80;97.60;;;;;;4961102;28;20027;-82
2021/01/20 11:13:40;;;;;;;2.47;1.27;;;10.70;97.90;;;;;;4956402;28;19907;-83
2021/01/20 11:16:06;;;;;;;4.90;1.58;;;10.70;97.90;;;;;;4948459;28;20034;-83
2021/01/20 11:18:33;;;;;;;;;;;10.70;97.90;;;;;;4940976;29;20106;-84
2021/01/20 11:20:59;;;;;;;6.03;1.60;;;10.70;97.40;;;;;;4950179;29;19910;-83
2021/01/20 11:23:27;;;;;;;6.43;1.60;;;10.70;97.90;;;;;;4954473;28;20358;-83
2021/01/20 11:25:57;;;;;;;8.00;1.88;;;10.80;97.40;;;;;;4970712;28;20030;-83
2021/01/20 11:28:23;;;;;;;2.85;1.50;;;10.80;97.60;;;;;;4956549;28;20030;-83
2021/01/20 11:30:50;;;;;;;8.07;1.60;;;10.80;97.50;;;;;;4943028;29;20035;-84
2021/01/20 11:33:16;;;;;;;5.47;1.75;;;10.70;97.80;;;;;;4950912;29;20544;-84
2021/01/20 11:35:42;;;;;;;5.22;1.30;;;10.70;97.60;;;;;;4953310;28;20058;-84
2021/01/20 11:38:08;;;;;;;3.72;1.20;;;10.70;97.20;;;;;;4955250;28;20027;-83
2021/01/20 11:40:35;;;;;;;8.43;2.03;;;10.70;97.60;;;;;;4954966;29;20426;-83
2021/01/20 11:43:02;;;;;;;2.75;1.10;;;10.70;97.40;;;;;;4943337;29;20031;-84
2021/01/20 11:45:31;;;;;;;2.67;1.48;;;10.80;97.40;;;;;;4951611;29;20424;-83
2021/01/20 11:50:23;;;;;;;5.35;1.30;;;10.70;97.60;;;;;;4950616;29;20038;-83
2021/01/20 11:52:50;;;;;;;5.10;1.45;;;10.70;97.80;;;;;;4954270;29;20128;-84
2021/01/20 11:55:17;;;;;;;6.53;1.58;;;10.70;97.50;;;;;;4957152;28;20480;-82
2021/01/20 11:57:42;;;;;;;5.78;2.28;;;10.70;98.00;;;;;;4963894;28;20123;-83
2021/01/20 12:00:09;;;;;;;11.73;2.03;;;10.70;97.80;;;;;;4951374;28;20110;-83
2021/01/20 12:02:36;;;;;;;5.43;2.35;;;10.70;97.90;;;;;;4951772;28;20039;-84
2021/01/20 12:05:04;;;;;;;5.40;1.88;;;10.70;97.70;;;;;;4953249;29;20477;-84
2021/01/20 12:07:33;;;;;;;7.40;2.00;;;10.70;97.70;;;;;;4948893;28;20015;-84
2021/01/20 12:09:58;;;;;;;8.23;2.15;;;10.70;97.60;;;;;;4942453;28;20028;-84
2021/01/20 12:17:15;;;;;;;4.82;1.98;;;10.70;98.00;;;;;;4950530;29;20036;-84
2021/01/20 12:19:41;;;;;;;4.20;2.75;;;10.70;97.50;;;;;;4968750;28;20090;-84
2021/01/20 12:22:08;;;;;;;7.15;2.33;;;10.70;97.50;;;;;;4954621;29;20053;-83
